Share

Mexico, MO

KMOMEXIC4 Elev 755 ft | 39.17 °N, 91.87 °W | Change Station

Current weather conditions updated 5 minutes ago

Clear
Clear
52.0 °F
Feels Like 52.0 °F
N
2.0
Wind Variable Wind from WNW
Gusts 6.0 mph
Sunrise 6:27 AM
Sunset 7:46 PM
Moon Waning Gibbous

Tomorrow is forecast to be Much Warmer than today.

Pressure 30.25 in
Visibility 10.0 miles
Clouds Clear
Dew Point 40 °F
Humidity 65%
Rainfall 0.00 in
Snow Depth Not available.
UV 6 out of 16
Pollen 8.80 out of 12
Air Quality Not available.
Flu Activity Sporadic
METAR KCOU 172054Z 31010KT 10SM CLR 12/04 A3025 RMK AO2 SLP244 T01170039 56008

More Conditions Fewer Conditions

Pressure 30.25 in
Visibility 10.0 miles
Clouds Clear
Dew Point 40 °F
Humidity 65%
Rainfall 0.00 in
Snow Depth Not available.
UV 6 out of 16
Pollen 8.80 out of 12
Air Quality Not available.
Flu Activity Sporadic
METAR KCOU 172054Z 31010KT 10SM CLR 12/04 A3025 RMK AO2 SLP244 T01170039 56008

More Conditions Fewer Conditions

10-Day Forecast

Almanac

Astronomy

Apr. 17, 2014 Rise Set
Actual Time 6:27 AM CDT 7:46 PM CDT
Civil Twilight 5:59 AM CDT 8:14 PM CDT
Nautical Twilight 5:26 AM CDT 8:48 PM CDT
Astronomical Twilight 4:51 AM CDT 9:23 PM CDT
Moon 10:32 PM CDT 8:00 AM CDT
Length of Visible Light 14h 14m
Length of Day
13h 19m
Tomorrow will be 2m 24s longer.
Waning Gibbous, 92% of the Moon is Illuminated
Today
Waning Gibbous
Apr 22
Last Quarter
Apr 29
New
May 6
First Quarter
May 14
Full

Today's Extremes

State Highs State Lows

Community

  • Morning Light
    Morning Light
  • New Day
    New Day
  • Lake Michigan Sunrise
    Lake Michigan Sunrise
  • sunset from izmir, narlıdere
    sunset from izmir, narlıdere
  • oregon cherry
    oregon cherry

WunderPhotos

Upload Photos

1,702,126 photos uploaded!

Nearby

Snow Depth

Station Depth Elevation
No new snow has been reported.

Coastal Water Temperatures

Place Temperature
No Stations Reporting

Earthquake Activity

City Distance Mag. Time & Date
No recent earthquake activity has been reported nearby.
Minimum magnitude displayed is 2.5.

Nearby Weather Stations

Station Location Temp. Dew Point Humidity Wind Precip. Elev Updated Type
Mexico, MO 52.0 °F 40 °F 65% WNW  at  2.0 mph 0.00 in / hr 755 ft 4:13 PM CDT Normal
Mexico, MO 53.1 °F 39 °F 59% North  at  0.0 mph 0.00 in / hr 755 ft 4:19 PM CDT Normal
Rolling Hills, Centralia, MO 51.6 °F 41 °F 68% North  at  2.9 mph 0.00 in / hr 886 ft 4:19 PM CDT Rapid Fire
YMCA, Fulton, MO 55.3 °F 42 °F 62% North  at  6.0 mph 0.00 in / hr 837 ft 4:12 PM CDT Normal
ALSAT Wireless, Montgomery City, MO 54.5 °F 43 °F 65% NNW  at  6.0 mph 0.00 in / hr 820 ft 4:19 PM CDT Rapid Fire
KFTT Elton Hensley Airport, Fulton, MO 55.2 °F 43 °F 63% NNW  at  10.9 mph - / hr 892 ft 4:11 PM CDT Normal

Show More Stations Show Fewer Stations

What do you think?

We're not finished. Please let us know what you like, what you don't like, and what you are still missing.